Time;durP1;ratioP1;P1;durP2;ratioP2;P2;SDS_P1;SDS_P2;PMS_P1;PMS_P2;Temp;Humidity;BMP_temperature;BMP_pressure;BME280_temperature;BME280_humidity;BME280_pressure;Samples;Min_cycle;Max_cycle;Signal;HPM_P1;HPM_P2
2022/08/10 00:00:21;;;;;;;2.60;1.52;;;19.50;66.20;;;;;;5051348;28;20029;-46
2022/08/10 00:02:55;;;;;;;3.28;1.80;;;19.50;66.30;;;;;;5052553;28;20029;-46
2022/08/10 00:05:22;;;;;;;2.25;1.67;;;19.50;66.60;;;;;;5052694;28;20044;-46
2022/08/10 00:07:48;;;;;;;8.05;2.85;;;19.40;66.70;;;;;;5052338;28;20025;-46
2022/08/10 00:10:17;;;;;;;2.25;1.80;;;19.40;66.90;;;;;;5051001;28;20125;-47
2022/08/10 00:12:44;;;;;;;5.70;1.98;;;19.40;67.20;;;;;;5053905;28;20021;-46
2022/08/10 00:15:12;;;;;;;3.03;2.45;;;19.40;67.30;;;;;;5056524;28;20468;-45
2022/08/10 00:17:38;;;;;;;1.73;1.60;;;19.30;67.60;;;;;;5056457;28;20049;-46
2022/08/10 00:20:05;;;;;;;4.70;2.97;;;19.30;67.80;;;;;;5056421;28;20052;-45
2022/08/10 00:22:30;;;;;;;2.65;1.75;;;19.30;68.20;;;;;;5056497;28;20020;-47
2022/08/10 00:24:56;;;;;;;3.72;1.92;;;19.30;68.30;;;;;;5055830;28;20059;-47
2022/08/10 00:27:27;;;;;;;2.83;1.65;;;19.30;68.40;;;;;;5056401;28;20087;-46
2022/08/10 00:29:52;;;;;;;;;;;19.20;68.60;;;;;;5056291;28;20024;-46
2022/08/10 00:32:18;;;;;;;4.35;1.80;;;19.20;68.90;;;;;;5056062;28;19909;-46
2022/08/10 00:34:45;;;;;;;6.82;1.92;;;19.20;69.10;;;;;;5056495;28;20027;-46
2022/08/10 00:37:12;;;;;;;3.33;1.92;;;19.10;69.40;;;;;;5055916;28;20477;-46
2022/08/10 00:39:38;;;;;;;3.00;1.75;;;19.10;69.60;;;;;;5055926;28;20108;-45
2022/08/10 00:42:08;;;;;;;3.78;2.03;;;19.10;69.80;;;;;;5055914;28;20064;-45
2022/08/10 00:44:46;;;;;;;3.33;1.50;;;19.00;70.10;;;;;;5055657;28;20119;-46
2022/08/10 00:47:13;;;;;;;5.60;2.10;;;19.00;70.20;;;;;;5055554;28;20037;-46
2022/08/10 00:49:39;;;;;;;4.82;1.88;;;19.00;70.50;;;;;;5055678;28;20032;-44
2022/08/10 00:52:06;;;;;;;3.28;2.28;;;19.00;70.60;;;;;;5055681;28;20410;-46
2022/08/10 00:54:35;;;;;;;2.65;2.17;;;18.90;70.80;;;;;;5056487;28;20480;-46
2022/08/10 00:57:01;;;;;;;3.80;2.03;;;18.90;71.10;;;;;;5055410;28;20143;-46
2022/08/10 00:59:28;;;;;;;4.40;2.00;;;18.90;71.10;;;;;;5055248;28;20063;-45
2022/08/10 01:01:54;;;;;;;2.47;2.05;;;18.80;71.40;;;;;;5053947;28;20036;-46
2022/08/10 01:04:20;;;;;;;2.72;2.08;;;18.80;71.50;;;;;;5055928;28;20033;-46
2022/08/10 01:06:57;;;;;;;1.67;1.58;;;18.80;71.70;;;;;;5055333;28;20449;-47
2022/08/10 01:09:49;;;;;;;4.90;2.60;;;18.80;71.90;;;;;;5055551;28;20028;-46
2022/08/10 01:12:46;;;;;;;5.20;2.10;;;18.80;72.10;;;;;;5055601;28;20024;-47
2022/08/10 01:15:18;;;;;;;2.80;2.03;;;18.70;72.30;;;;;;5055706;28;20489;-46
2022/08/10 01:17:57;;;;;;;4.43;1.92;;;18.70;72.50;;;;;;5053864;28;20036;-52
2022/08/10 01:20:39;;;;;;;4.03;2.60;;;18.60;72.70;;;;;;5055481;28;20052;-46
2022/08/10 01:23:31;;;;;;;7.45;2.72;;;18.60;73.00;;;;;;5055337;28;20511;-46
2022/08/10 01:26:03;;;;;;;3.20;2.13;;;18.70;73.10;;;;;;5054875;28;20045;-46
2022/08/10 01:28:58;;;;;;;2.63;2.40;;;18.70;73.00;;;;;;5053505;28;20076;-48
2022/08/10 01:31:31;;;;;;;4.60;2.67;;;18.70;72.90;;;;;;5055614;28;20049;-45
2022/08/10 01:34:08;;;;;;;2.67;2.40;;;18.60;73.30;;;;;;5054330;28;20076;-45
2022/08/10 01:36:46;;;;;;;4.35;2.42;;;18.60;73.40;;;;;;5055469;28;20047;-46
2022/08/10 01:39:22;;;;;;;3.33;2.67;;;18.60;73.50;;;;;;5054695;28;20108;-46
2022/08/10 01:41:53;;;;;;;4.45;2.40;;;18.50;73.70;;;;;;5053424;28;20025;-45
2022/08/10 01:44:26;;;;;;;3.03;2.60;;;18.50;73.90;;;;;;5053459;28;20098;-49
2022/08/10 01:48:27;;;;;;;3.13;2.60;;;18.40;74.10;;;;;;5054989;28;20096;-45
2022/08/10 01:49:47;;;;;;;2.67;2.42;;;18.40;74.30;;;;;;5054538;28;20039;-45
2022/08/10 01:52:17;;;;;;;2.65;2.38;;;18.40;74.40;;;;;;5055030;28;20066;-45
2022/08/10 01:54:44;;;;;;;4.25;2.38;;;18.30;74.50;;;;;;5055023;28;20377;-45
2022/08/10 01:57:12;;;;;;;2.83;2.15;;;18.30;74.70;;;;;;5036588;28;20035;-46
2022/08/10 01:59:40;;;;;;;5.90;2.78;;;18.30;74.70;;;;;;5054314;28;20017;-46
2022/08/10 02:02:12;;;;;;;5.05;2.60;;;18.30;74.80;;;;;;5052981;28;20030;-46
2022/08/10 02:04:40;;;;;;;4.20;2.90;;;18.30;75.10;;;;;;5054140;28;20040;-46
2022/08/10 02:07:10;;;;;;;4.78;2.60;;;18.20;75.00;;;;;;5054430;28;20457;-46
2022/08/10 02:09:39;;;;;;;3.28;2.30;;;18.20;75.20;;;;;;5054326;28;20025;-45
2022/08/10 02:12:14;;;;;;;3.70;2.47;;;18.20;75.20;;;;;;5054369;28;20078;-45
2022/08/10 02:14:49;;;;;;;5.70;2.85;;;18.20;75.40;;;;;;5054009;28;20362;-45
2022/08/10 02:17:26;;;;;;;2.42;2.00;;;18.10;75.50;;;;;;5054315;28;20038;-46
2022/08/10 02:19:55;;;;;;;4.40;2.88;;;18.10;75.60;;;;;;5053102;28;20040;-45
2022/08/10 02:22:22;;;;;;;4.25;2.47;;;18.10;75.70;;;;;;5054470;28;20086;-46
2022/08/10 02:24:50;;;;;;;3.55;2.67;;;18.10;75.80;;;;;;5053705;28;20021;-45
2022/08/10 02:27:17;;;;;;;3.33;2.88;;;18.10;75.90;;;;;;5053737;28;20067;-45
2022/08/10 02:29:45;;;;;;;6.57;2.97;;;18.10;75.90;;;;;;5052442;28;20493;-46
2022/08/10 02:32:12;;;;;;;4.90;2.53;;;18.00;76.00;;;;;;5053971;28;20098;-45
2022/08/10 02:34:39;;;;;;;4.82;2.88;;;18.00;76.20;;;;;;5053358;28;20056;-45
2022/08/10 02:37:07;;;;;;;3.88;2.67;;;17.90;76.20;;;;;;5053553;28;20496;-46
2022/08/10 02:39:35;;;;;;;5.80;2.70;;;17.90;76.40;;;;;;5053717;28;20108;-45
2022/08/10 02:42:19;;;;;;;5.35;2.67;;;17.90;76.50;;;;;;5052111;28;20045;-48
2022/08/10 02:45:07;;;;;;;4.32;2.65;;;17.80;76.50;;;;;;5053645;28;20496;-45
2022/08/10 02:47:41;;;;;;;4.20;2.85;;;17.80;76.70;;;;;;5053231;28;20021;-50
2022/08/10 02:50:15;;;;;;;3.15;2.83;;;17.80;76.80;;;;;;5053580;28;20083;-45
2022/08/10 02:52:45;;;;;;;8.55;2.83;;;17.80;76.90;;;;;;5053789;28;20064;-45
2022/08/10 02:55:22;;;;;;;5.83;2.80;;;17.80;77.00;;;;;;5053454;28;20082;-46
2022/08/10 02:57:53;;;;;;;7.20;4.82;;;17.80;77.20;;;;;;5053400;28;20060;-45
2022/08/10 03:00:19;;;;;;;12.05;3.13;;;17.70;77.30;;;;;;5053165;28;20500;-46
2022/08/10 03:02:48;;;;;;;4.53;3.22;;;17.70;77.30;;;;;;5053491;28;20025;-47
2022/08/10 03:05:16;;;;;;;5.13;2.90;;;17.70;77.40;;;;;;5052912;28;20075;-45
2022/08/10 03:07:57;;;;;;;3.35;3.00;;;17.70;77.50;;;;;;5051585;28;20259;-46
2022/08/10 03:10:29;;;;;;;4.18;3.17;;;17.70;77.50;;;;;;5051657;28;20051;-46
2022/08/10 03:12:58;;;;;;;3.35;3.05;;;17.60;77.60;;;;;;5052883;28;20017;-45
2022/08/10 03:15:26;;;;;;;3.47;2.90;;;17.60;77.80;;;;;;5053173;28;20111;-45
2022/08/10 03:17:53;;;;;;;8.63;2.25;;;17.60;77.80;;;;;;5052983;28;20028;-45
2022/08/10 03:20:20;;;;;;;6.03;3.85;;;17.50;77.80;;;;;;5052773;28;20075;-46
2022/08/10 03:22:49;;;;;;;5.70;3.13;;;17.50;77.90;;;;;;5053030;28;20551;-45
2022/08/10 03:25:17;;;;;;;5.30;3.42;;;17.50;78.10;;;;;;5053312;28;20073;-46
2022/08/10 03:27:44;;;;;;;5.10;3.13;;;17.50;78.10;;;;;;5052835;28;20025;-46
2022/08/10 03:30:11;;;;;;;3.88;2.95;;;17.40;78.30;;;;;;5053135;28;20079;-46
2022/08/10 03:32:37;;;;;;;3.97;3.47;;;17.40;78.30;;;;;;5052635;28;20021;-47
2022/08/10 03:35:06;;;;;;;4.95;3.05;;;17.40;78.30;;;;;;5052846;28;20033;-45
2022/08/10 03:37:32;;;;;;;5.75;2.95;;;17.40;78.40;;;;;;5051649;28;20021;-46
2022/08/10 03:39:58;;;;;;;4.65;2.60;;;17.40;78.40;;;;;;5052473;28;20025;-46
2022/08/10 03:42:26;;;;;;;5.85;2.85;;;17.40;78.50;;;;;;5051078;28;20029;-44
2022/08/10 03:44:53;;;;;;;9.45;2.97;;;17.30;78.50;;;;;;5052481;28;20432;-45
2022/08/10 03:47:21;;;;;;;5.85;3.88;;;17.30;78.60;;;;;;5051982;28;20090;-45
2022/08/10 03:49:48;;;;;;;5.35;2.75;;;17.30;78.70;;;;;;5056821;28;20384;-47
2022/08/10 19:28:12;;;;;;;3.25;1.60;;;25.80;37.60;;;;;;4991300;28;20837;-48
2022/08/10 19:30:50;;;;;;;4.63;1.98;;;25.70;37.70;;;;;;4989657;28;20111;-50
2022/08/10 19:34:09;;;;;;;2.47;1.90;;;25.70;37.90;;;;;;4990774;28;20027;-47
2022/08/10 19:37:08;;;;;;;7.70;1.52;;;25.60;38.10;;;;;;4989299;28;20031;-47
2022/08/10 19:39:52;;;;;;;1.73;1.63;;;25.60;38.30;;;;;;4990490;28;20049;-46
2022/08/10 19:42:24;;;;;;;2.45;1.20;;;25.50;38.40;;;;;;4990970;28;20471;-51
2022/08/10 19:45:24;;;;;;;2.55;1.38;;;25.40;38.50;;;;;;4990963;28;20046;-47
2022/08/10 19:47:52;;;;;;;6.15;1.85;;;25.40;38.60;;;;;;4991157;28;20114;-47
2022/08/10 19:50:36;;;;;;;4.25;1.70;;;25.40;38.70;;;;;;4990944;28;20053;-48
2022/08/10 19:53:07;;;;;;;2.88;1.83;;;25.30;38.80;;;;;;4991120;28;20058;-47
2022/08/10 19:55:59;;;;;;;2.83;1.50;;;25.30;39.00;;;;;;4990869;28;20095;-48
2022/08/10 19:58:44;;;;;;;2.72;1.60;;;25.30;39.00;;;;;;4990420;28;20460;-47
2022/08/10 20:01:10;;;;;;;4.68;1.75;;;25.20;39.30;;;;;;4990731;28;20055;-48
2022/08/10 20:03:51;;;;;;;5.97;1.73;;;25.20;39.30;;;;;;4989178;28;20029;-47
2022/08/10 20:06:42;;;;;;;5.85;2.38;;;25.20;39.50;;;;;;4990404;28;20035;-49
2022/08/10 20:09:20;;;;;;;3.50;1.70;;;25.10;39.60;;;;;;4990209;28;20110;-47
2022/08/10 20:12:09;;;;;;;11.68;1.70;;;25.10;39.70;;;;;;4990321;28;20387;-47
2022/08/10 20:14:57;;;;;;;3.53;1.67;;;25.00;39.80;;;;;;4990570;28;20052;-47
2022/08/10 20:17:33;;;;;;;2.42;1.70;;;25.00;39.90;;;;;;4988764;28;20027;-47
2022/08/10 20:20:12;;;;;;;3.35;2.15;;;24.90;40.00;;;;;;4990633;28;20048;-46
2022/08/10 20:23:22;;;;;;;3.45;1.50;;;24.80;40.20;;;;;;4990313;28;20091;-47
2022/08/10 20:26:19;;;;;;;2.50;2.13;;;24.80;40.40;;;;;;4991344;28;20047;-48
2022/08/10 20:29:03;;;;;;;2.13;1.65;;;24.80;40.50;;;;;;5007413;28;20030;-49
2022/08/10 20:31:39;;;;;;;7.40;1.98;;;24.70;40.70;;;;;;5009758;28;20084;-47
2022/08/10 20:34:17;;;;;;;4.35;1.85;;;24.70;40.90;;;;;;5009425;28;20022;-47
2022/08/10 20:36:48;;;;;;;3.08;1.50;;;24.60;41.10;;;;;;5009761;28;20030;-47
2022/08/10 20:39:19;;;;;;;1.88;1.42;;;24.50;41.20;;;;;;4996581;28;20050;-47
2022/08/10 20:42:22;;;;;;;1.40;1.30;;;24.50;41.30;;;;;;4996543;28;20446;-47
2022/08/10 20:44:54;;;;;;;3.25;1.60;;;24.50;41.50;;;;;;4996199;28;20486;-48
2022/08/10 20:47:38;;;;;;;4.35;2.00;;;24.40;41.60;;;;;;4998215;28;20054;-47
2022/08/10 20:50:14;;;;;;;1.75;1.50;;;24.40;41.70;;;;;;4996168;28;20091;-47
2022/08/10 20:52:43;;;;;;;4.15;1.52;;;24.30;41.90;;;;;;4996349;28;20018;-47
2022/08/10 20:55:11;;;;;;;2.35;1.67;;;24.30;41.90;;;;;;4978605;28;20030;-47
2022/08/10 20:58:14;;;;;;;5.47;2.10;;;24.30;41.90;;;;;;4995832;28;20022;-47
2022/08/10 21:00:49;;;;;;;4.20;1.60;;;24.30;42.00;;;;;;4994621;28;20069;-46
2022/08/10 21:03:39;;;;;;;2.65;1.42;;;24.30;42.10;;;;;;4996761;28;20419;-47
2022/08/10 21:06:42;;;;;;;4.15;2.28;;;24.30;42.00;;;;;;4996143;28;20034;-47
2022/08/10 21:09:23;;;;;;;3.08;1.80;;;24.20;42.10;;;;;;4996024;28;20105;-47
2022/08/10 21:12:12;;;;;;;3.55;1.63;;;24.20;42.30;;;;;;4995773;28;20027;-45
2022/08/10 21:14:58;;;;;;;2.88;1.70;;;24.10;42.30;;;;;;4996036;28;20030;-46
2022/08/10 21:17:54;;;;;;;4.60;2.00;;;24.00;42.40;;;;;;4995878;28;20046;-47
2022/08/10 21:20:57;;;;;;;3.63;2.17;;;24.00;42.50;;;;;;4995861;28;20026;-47
2022/08/10 21:23:27;;;;;;;7.10;1.55;;;23.90;42.70;;;;;;4995860;28;20481;-48
2022/08/10 21:25:53;;;;;;;10.75;1.75;;;23.80;42.80;;;;;;4994028;28;20137;-47
2022/08/10 22:52:39;;;;;;;4.93;1.40;;;22.70;45.10;;;;;;4993635;28;20105;-46
2022/08/10 23:00:59;;;;;;;4.78;1.70;;;22.70;45.00;;;;;;4994081;28;20097;-46
2022/08/10 23:03:26;;;;;;;4.88;2.83;;;22.50;45.20;;;;;;4992529;28;20041;-45
2022/08/10 23:05:57;;;;;;;3.08;2.03;;;22.50;45.60;;;;;;4993714;28;20030;-47
2022/08/10 23:08:30;;;;;;;3.63;1.98;;;22.40;45.70;;;;;;4993851;28;20026;-46
2022/08/10 23:11:02;;;;;;;6.43;1.88;;;22.50;45.60;;;;;;4994123;28;20054;-47
2022/08/10 23:13:31;;;;;;;2.58;1.58;;;22.60;45.40;;;;;;4994057;28;20031;-46
2022/08/10 23:21:55;;;;;;;;;;;22.30;45.80;;;;;;4994616;28;20062;-48
2022/08/10 23:24:30;;;;;;;1.80;1.25;;;22.30;45.70;;;;;;4993902;28;19956;-45
2022/08/10 23:26:58;;;;;;;2.70;1.40;;;22.40;45.70;;;;;;4993395;28;20070;-47
2022/08/10 23:29:25;;;;;;;5.68;2.20;;;22.30;45.70;;;;;;4994437;28;20451;-47
2022/08/10 23:31:52;;;;;;;3.10;1.90;;;22.20;45.90;;;;;;4993500;28;20415;-50
2022/08/10 23:34:25;;;;;;;4.07;1.58;;;22.20;46.00;;;;;;4992228;28;20030;-47
2022/08/10 23:36:52;;;;;;;5.47;1.48;;;22.20;46.10;;;;;;4993575;28;20058;-47
2022/08/10 23:39:25;;;;;;;3.67;1.45;;;22.30;45.90;;;;;;4993785;28;20105;-47
2022/08/10 23:41:58;;;;;;;2.65;1.27;;;22.20;46.30;;;;;;4993643;28;20479;-46
2022/08/10 23:44:26;;;;;;;1.40;1.25;;;22.20;46.30;;;;;;4993501;28;20034;-47
2022/08/10 23:46:52;;;;;;;1.60;1.23;;;22.10;46.50;;;;;;4993271;28;20074;-46
2022/08/10 23:49:19;;;;;;;3.88;1.40;;;22.00;46.60;;;;;;4993545;28;20034;-46
2022/08/10 23:51:46;;;;;;;3.55;1.67;;;22.00;46.80;;;;;;4991948;28;20050;-47
2022/08/10 23:54:17;;;;;;;2.20;1.60;;;22.00;46.80;;;;;;4992075;28;20038;-47
2022/08/10 23:56:50;;;;;;;2.92;1.58;;;22.00;47.00;;;;;;4993622;28;20371;-47
2022/08/10 23:59:19;;;;;;;2.67;1.67;;;22.00;47.00;;;;;;4992311;28;20371;-46
